createdAt,value
2018-09-02T00:00:05.304Z,3.47
2018-09-02T00:02:33.511Z,2.20
2018-09-02T00:05:01.736Z,4.80
2018-09-02T00:07:29.926Z,4.13
2018-09-02T00:09:58.185Z,4.90
2018-09-02T00:12:26.394Z,3.03
2018-09-02T00:14:54.587Z,4.30
2018-09-02T00:17:22.771Z,1.97
2018-09-02T00:19:50.985Z,2.77
2018-09-02T00:22:19.153Z,6.33
2018-09-02T00:24:47.362Z,5.00
2018-09-02T00:27:15.589Z,3.40
2018-09-02T00:29:43.864Z,3.33
2018-09-02T00:32:12.027Z,2.03
2018-09-02T00:34:40.217Z,5.23
2018-09-02T00:37:08.461Z,2.40
2018-09-02T00:39:36.697Z,2.97
2018-09-02T00:42:04.940Z,2.77
2018-09-02T00:44:33.164Z,3.00
2018-09-02T00:47:01.311Z,3.37
2018-09-02T00:49:29.548Z,3.23
2018-09-02T00:51:57.751Z,5.80
2018-09-02T00:54:25.937Z,3.73
2018-09-02T00:56:54.130Z,3.37
2018-09-02T00:59:23.547Z,2.60
2018-09-02T01:01:51.784Z,6.80
2018-09-02T01:04:19.960Z,3.30
2018-09-02T01:06:48.132Z,4.20
2018-09-02T01:09:16.323Z,2.93
2018-09-02T01:11:44.487Z,5.63
2018-09-02T01:14:12.706Z,2.87
2018-09-02T01:16:40.891Z,2.43
2018-09-02T01:19:09.084Z,3.87
2018-09-02T01:21:37.325Z,3.27
2018-09-02T01:24:05.523Z,3.47
2018-09-02T01:26:33.737Z,3.83
2018-09-02T01:29:01.983Z,3.57
2018-09-02T01:31:30.181Z,2.30
2018-09-02T01:33:58.384Z,7.57
2018-09-02T01:36:26.596Z,4.53
2018-09-02T01:38:54.757Z,3.10
2018-09-02T01:41:22.981Z,3.67
2018-09-02T01:43:51.186Z,3.17
2018-09-02T01:46:19.349Z,4.07
2018-09-02T01:48:47.553Z,5.07
2018-09-02T01:51:15.800Z,4.80
2018-09-02T01:53:44.027Z,3.70
2018-09-02T01:56:12.219Z,3.60
2018-09-02T01:58:40.394Z,4.70
2018-09-02T02:01:08.586Z,5.30
2018-09-02T02:03:36.911Z,2.07
2018-09-02T02:06:05.071Z,2.60
2018-09-02T02:08:33.263Z,4.20
2018-09-02T02:11:01.441Z,3.90
2018-09-02T02:13:29.599Z,6.23
2018-09-02T02:15:57.804Z,6.00
2018-09-02T02:18:26.044Z,4.23
2018-09-02T02:20:54.275Z,2.80
2018-09-02T02:23:22.430Z,2.97
2018-09-02T02:25:50.654Z,5.43
2018-09-02T02:28:18.840Z,5.83
2018-09-02T02:30:47.050Z,4.50
2018-09-02T02:33:15.289Z,7.40
2018-09-02T02:35:43.484Z,2.73
2018-09-02T02:38:11.670Z,2.70
2018-09-02T02:40:39.911Z,4.07
2018-09-02T02:43:08.151Z,3.10
2018-09-02T02:45:36.385Z,6.27
2018-09-02T02:48:04.763Z,3.20
2018-09-02T02:50:33.103Z,2.97
2018-09-02T02:53:05.038Z,4.90
2018-09-02T02:55:34.544Z,4.20
2018-09-02T02:58:03.147Z,5.00
2018-09-02T03:00:31.936Z,5.30
2018-09-02T03:03:00.140Z,3.03
2018-09-02T03:05:28.467Z,6.37
2018-09-02T03:07:56.739Z,6.27
2018-09-02T03:10:25.072Z,2.33
2018-09-02T03:12:53.282Z,4.67
2018-09-02T03:15:21.468Z,4.43
2018-09-02T03:17:49.664Z,3.10
2018-09-02T03:20:17.864Z,5.73
2018-09-02T03:22:46.057Z,6.23
2018-09-02T03:25:14.316Z,5.30
2018-09-02T03:27:42.495Z,3.03
2018-09-02T03:30:10.680Z,5.47
2018-09-02T03:32:38.882Z,5.27
2018-09-02T03:35:08.019Z,5.13
2018-09-02T03:37:36.199Z,4.97
2018-09-02T03:40:04.704Z,4.73
2018-09-02T03:42:32.996Z,4.17
2018-09-02T03:45:01.220Z,5.77
2018-09-02T03:47:29.408Z,4.40
2018-09-02T03:49:57.595Z,6.73
2018-09-02T03:52:25.795Z,6.83
2018-09-02T03:54:53.975Z,6.60
2018-09-02T03:57:22.172Z,3.47
2018-09-02T03:59:50.421Z,4.70
2018-09-02T04:02:18.604Z,5.63
2018-09-02T04:04:46.803Z,3.40
2018-09-02T04:07:15.016Z,4.03
2018-09-02T04:09:43.184Z,4.87
2018-09-02T04:12:11.341Z,5.00
2018-09-02T04:14:39.527Z,3.73
2018-09-02T04:17:07.704Z,3.97
2018-09-02T04:19:35.906Z,3.50
2018-09-02T04:22:04.067Z,3.57
2018-09-02T04:24:32.231Z,4.47
2018-09-02T04:27:00.469Z,9.13
2018-09-02T04:29:30.986Z,5.57
2018-09-02T04:31:59.200Z,7.87
2018-09-02T04:34:27.414Z,4.63
2018-09-02T04:36:55.583Z,4.47
2018-09-02T04:39:23.794Z,6.07
2018-09-02T04:41:51.974Z,5.10
2018-09-02T04:44:20.196Z,4.97
2018-09-02T04:46:48.403Z,3.53
2018-09-02T04:49:16.607Z,3.43
2018-09-02T04:51:44.788Z,7.07
2018-09-02T04:54:13.034Z,5.83
2018-09-02T04:56:41.161Z,4.73
2018-09-02T04:59:09.344Z,5.07
2018-09-02T05:01:37.604Z,3.97
2018-09-02T05:04:05.864Z,6.17
2018-09-02T05:06:33.984Z,2.30
2018-09-02T05:09:02.175Z,3.63
2018-09-02T05:11:30.343Z,7.50
2018-09-02T05:13:58.547Z,4.63
2018-09-02T05:16:26.748Z,3.53
2018-09-02T05:18:54.960Z,5.27
2018-09-02T05:21:23.139Z,2.83
2018-09-02T05:23:51.318Z,6.60
2018-09-02T05:26:19.567Z,4.80
2018-09-02T05:28:47.744Z,5.42
2018-09-02T05:31:15.916Z,3.13
2018-09-02T05:33:44.112Z,8.03
2018-09-02T05:36:13.171Z,4.10
2018-09-02T05:38:41.369Z,11.60
2018-09-02T05:41:09.622Z,2.73
2018-09-02T05:43:37.835Z,3.17
2018-09-02T05:46:06.071Z,5.97
2018-09-02T05:48:34.318Z,4.90
2018-09-02T05:51:02.514Z,2.77
2018-09-02T05:53:30.755Z,2.23
2018-09-02T05:55:58.956Z,3.57
2018-09-02T05:58:27.146Z,3.77
2018-09-02T06:00:55.373Z,4.03
2018-09-02T06:03:23.551Z,6.13
2018-09-02T06:05:51.736Z,5.47
2018-09-02T06:08:19.927Z,7.00
2018-09-02T06:10:48.280Z,4.33
2018-09-02T06:13:16.503Z,6.97
2018-09-02T06:15:44.675Z,5.03
2018-09-02T06:18:12.859Z,6.03
2018-09-02T06:20:41.093Z,5.47
2018-09-02T06:23:09.344Z,9.47
2018-09-02T06:25:37.578Z,4.57
2018-09-02T06:28:05.843Z,3.43
2018-09-02T06:30:34.037Z,4.63
2018-09-02T06:33:02.374Z,4.80
2018-09-02T06:35:30.574Z,4.93
2018-09-02T06:37:58.696Z,5.03
2018-09-02T06:40:26.918Z,5.57
2018-09-02T06:42:55.136Z,3.37
2018-09-02T06:45:23.418Z,3.90
2018-09-02T06:47:51.640Z,5.97
2018-09-02T06:50:19.823Z,8.60
2018-09-02T06:52:48.096Z,3.77
2018-09-02T06:55:16.237Z,4.10
2018-09-02T06:57:44.464Z,4.20
2018-09-02T07:00:12.704Z,3.87
2018-09-02T07:02:40.855Z,6.70
2018-09-02T07:05:09.048Z,5.60
2018-09-02T07:07:37.210Z,4.83
2018-09-02T07:10:05.386Z,5.20
2018-09-02T07:12:33.593Z,6.80
2018-09-02T07:15:01.767Z,4.50
2018-09-02T07:17:29.983Z,3.10
2018-09-02T07:19:58.302Z,4.23
2018-09-02T07:22:26.448Z,2.93
2018-09-02T07:24:54.660Z,4.93
2018-09-02T07:27:22.927Z,3.43
2018-09-02T07:29:51.311Z,3.67
2018-09-02T07:32:19.484Z,3.63
2018-09-02T07:34:47.925Z,2.30
2018-09-02T07:37:16.122Z,4.67
2018-09-02T07:39:44.354Z,2.60
2018-09-02T07:42:12.600Z,2.13
2018-09-02T07:44:40.788Z,2.47
2018-09-02T07:47:08.980Z,2.27
2018-09-02T07:49:37.299Z,2.73
2018-09-02T07:52:05.464Z,3.10
2018-09-02T07:54:33.741Z,2.30
2018-09-02T07:57:01.869Z,3.63
2018-09-02T07:59:31.930Z,2.13
2018-09-02T08:02:00.212Z,2.90
2018-09-02T08:04:28.370Z,2.90
2018-09-02T08:06:56.563Z,2.97
2018-09-02T08:09:24.737Z,3.47
2018-09-02T08:11:52.963Z,2.10
2018-09-02T08:14:21.459Z,2.70
2018-09-02T08:16:49.610Z,3.03
2018-09-02T08:19:17.755Z,3.63
2018-09-02T08:21:46.012Z,4.73
2018-09-02T08:24:14.192Z,2.77
2018-09-02T08:26:42.529Z,1.50
2018-09-02T08:29:10.699Z,2.97
2018-09-02T08:31:38.907Z,2.50
2018-09-02T08:34:07.249Z,1.63
2018-09-02T08:36:35.332Z,3.77
2018-09-02T08:39:04.563Z,2.23
2018-09-02T08:41:32.796Z,3.37
2018-09-02T08:44:00.984Z,2.87
2018-09-02T08:46:29.127Z,1.80
2018-09-02T08:48:57.311Z,2.53
2018-09-02T08:51:25.499Z,2.17
2018-09-02T08:53:53.651Z,2.23
2018-09-02T08:56:21.801Z,2.33
2018-09-02T08:58:50.035Z,2.33
2018-09-02T09:03:47.403Z,2.13
2018-09-02T09:06:15.620Z,2.40
2018-09-02T09:08:43.939Z,3.10
2018-09-02T09:11:12.016Z,2.20
2018-09-02T09:13:40.216Z,2.50
2018-09-02T09:16:08.457Z,2.10
2018-09-02T09:18:36.662Z,1.37
2018-09-02T09:21:05.119Z,2.23
2018-09-02T09:23:33.356Z,2.03
2018-09-02T09:26:01.529Z,1.90
2018-09-02T09:28:29.689Z,2.00
2018-09-02T09:30:57.834Z,1.57
2018-09-02T09:33:26.058Z,1.80
2018-09-02T09:35:54.266Z,2.37
2018-09-02T09:38:22.477Z,1.97
2018-09-02T09:40:50.651Z,2.17
2018-09-02T09:43:18.863Z,1.93
2018-09-02T09:45:47.153Z,2.07
2018-09-02T09:48:15.260Z,1.40
2018-09-02T09:50:43.445Z,2.27
2018-09-02T09:53:11.639Z,2.03
2018-09-02T09:55:39.905Z,2.40
2018-09-02T09:58:08.070Z,1.80
2018-09-02T10:00:41.620Z,1.70
2018-09-02T10:03:09.795Z,2.60
2018-09-02T10:05:37.980Z,1.60
2018-09-02T10:08:06.249Z,2.23
2018-09-02T10:10:34.518Z,2.13
2018-09-02T10:13:03.149Z,2.60
2018-09-02T10:15:31.384Z,2.50
2018-09-02T10:17:59.593Z,2.40
2018-09-02T10:20:27.833Z,2.60
2018-09-02T10:22:56.085Z,2.10
2018-09-02T10:25:24.244Z,1.67
2018-09-02T10:27:52.414Z,3.20
2018-09-02T10:30:20.639Z,2.33
2018-09-02T10:32:56.004Z,4.97
2018-09-02T10:35:24.179Z,1.97
2018-09-02T10:37:52.399Z,1.97
2018-09-02T10:40:20.563Z,2.07
2018-09-02T10:42:48.816Z,2.67
2018-09-02T10:45:17.009Z,2.40
2018-09-02T10:47:45.205Z,1.93
2018-09-02T10:50:13.407Z,3.03
2018-09-02T10:52:48.267Z,2.67
2018-09-02T10:55:16.483Z,1.80
2018-09-02T10:57:44.675Z,2.27
2018-09-02T11:00:12.901Z,2.43
2018-09-02T11:02:41.085Z,1.63
2018-09-02T11:05:09.628Z,1.50
2018-09-02T11:07:37.894Z,2.27
2018-09-02T11:10:06.526Z,2.83
2018-09-02T11:12:34.758Z,2.87
2018-09-02T11:15:03.117Z,2.10
2018-09-02T11:17:31.284Z,1.60
2018-09-02T11:19:59.428Z,2.10
2018-09-02T11:22:27.608Z,2.00
2018-09-02T11:24:55.781Z,2.60
2018-09-02T11:27:23.994Z,2.00
2018-09-02T11:29:52.280Z,1.53
2018-09-02T11:32:20.475Z,1.60
2018-09-02T11:34:48.667Z,1.97
2018-09-02T11:37:16.824Z,2.00
2018-09-02T11:39:45.036Z,1.77
2018-09-02T11:42:13.232Z,2.10
2018-09-02T11:44:41.387Z,2.60
2018-09-02T11:47:09.588Z,1.50
2018-09-02T11:49:37.744Z,3.07
2018-09-02T11:52:05.956Z,1.57
2018-09-02T11:54:34.096Z,1.77
2018-09-02T11:57:02.277Z,1.40
2018-09-02T11:59:32.178Z,1.47
2018-09-02T12:02:00.440Z,1.63
2018-09-02T12:04:28.583Z,2.00
2018-09-02T12:06:56.816Z,2.20
2018-09-02T12:09:25.011Z,1.60
2018-09-02T12:11:53.217Z,1.90
2018-09-02T12:14:21.778Z,1.37
2018-09-02T12:16:49.540Z,2.57
2018-09-02T12:19:17.732Z,2.10
2018-09-02T12:21:45.921Z,1.80
2018-09-02T12:24:14.101Z,1.53
2018-09-02T12:26:42.255Z,1.20
2018-09-02T12:29:10.508Z,1.70
2018-09-02T12:31:38.759Z,1.63
2018-09-02T12:34:06.873Z,1.47
2018-09-02T12:36:35.046Z,1.87
2018-09-02T12:39:03.248Z,1.50
2018-09-02T12:41:31.421Z,1.13
2018-09-02T12:43:59.628Z,1.13
2018-09-02T12:46:27.773Z,1.10
2018-09-02T12:48:55.948Z,1.27
2018-09-02T12:51:24.155Z,0.80
2018-09-02T12:53:52.347Z,1.67
2018-09-02T12:56:20.548Z,1.97
2018-09-02T12:58:48.831Z,1.83
2018-09-02T13:01:17.454Z,2.13
2018-09-02T13:03:45.565Z,1.50
2018-09-02T13:06:13.812Z,1.40
2018-09-02T13:08:41.996Z,1.43
2018-09-02T13:11:10.273Z,2.17
2018-09-02T13:13:38.524Z,1.20
2018-09-02T13:16:06.740Z,1.40
2018-09-02T13:18:34.899Z,3.17
2018-09-02T13:21:03.075Z,1.10
2018-09-02T13:23:31.268Z,1.10
2018-09-02T13:25:59.474Z,2.27
2018-09-02T13:28:27.649Z,1.90
2018-09-02T13:30:55.846Z,0.83
2018-09-02T13:33:24.003Z,1.27
2018-09-02T13:35:52.206Z,1.20
2018-09-02T13:38:20.388Z,1.83
2018-09-02T13:40:48.635Z,1.20
2018-09-02T13:43:16.984Z,1.53
2018-09-02T13:45:45.031Z,1.20
2018-09-02T13:48:13.263Z,1.17
2018-09-02T13:50:41.456Z,1.40
2018-09-02T13:53:09.708Z,2.03
2018-09-02T13:55:37.951Z,0.97
2018-09-02T13:58:06.120Z,1.10
2018-09-02T14:00:34.292Z,1.47
2018-09-02T14:03:02.476Z,1.80
2018-09-02T14:05:30.619Z,1.83
2018-09-02T14:07:58.887Z,1.10
2018-09-02T14:10:27.132Z,1.60
2018-09-02T14:12:55.280Z,1.30
2018-09-02T14:15:23.454Z,1.30
2018-09-02T14:17:51.671Z,1.20
2018-09-02T14:20:19.820Z,1.07
2018-09-02T14:22:48.016Z,1.70
2018-09-02T14:25:16.178Z,1.30
2018-09-02T14:27:47.267Z,1.27
2018-09-02T14:30:15.497Z,1.90
2018-09-02T14:32:43.680Z,1.10
2018-09-02T14:35:11.860Z,1.43
2018-09-02T14:37:40.067Z,1.43
2018-09-02T14:40:08.256Z,1.30
2018-09-02T14:42:36.524Z,1.57
2018-09-02T14:45:04.847Z,1.53
2018-09-02T14:47:33.073Z,1.20
2018-09-02T14:50:01.258Z,1.30
2018-09-02T14:52:29.446Z,2.00
2018-09-02T14:54:57.589Z,1.50
2018-09-02T14:57:25.792Z,1.10
2018-09-02T14:59:54.394Z,3.17
2018-09-02T15:02:22.583Z,2.53
2018-09-02T15:04:50.712Z,1.00
2018-09-02T15:07:18.893Z,1.07
2018-09-02T15:09:47.063Z,2.10
2018-09-02T15:12:15.212Z,1.00
2018-09-02T15:14:43.496Z,1.47
2018-09-02T15:17:11.692Z,1.60
2018-09-02T15:19:39.935Z,0.90
2018-09-02T15:22:08.088Z,1.03
2018-09-02T15:24:36.359Z,2.27
2018-09-02T15:27:04.610Z,1.17
2018-09-02T15:29:34.173Z,1.27
2018-09-02T15:32:02.353Z,1.30
2018-09-02T15:34:30.512Z,0.90
2018-09-02T15:36:58.702Z,1.40
2018-09-02T15:39:27.012Z,1.20
2018-09-02T15:41:55.176Z,1.10
2018-09-02T15:44:23.444Z,1.50
2018-09-02T15:46:51.635Z,1.00
2018-09-02T15:49:19.823Z,1.17
2018-09-02T15:51:48.025Z,1.23
2018-09-02T15:54:16.223Z,1.40
2018-09-02T15:56:44.438Z,0.90
2018-09-02T15:59:12.619Z,1.90
2018-09-02T16:01:40.934Z,1.20
2018-09-02T16:04:09.083Z,1.10
2018-09-02T16:06:37.329Z,2.40
2018-09-02T16:09:07.996Z,1.07
2018-09-02T16:11:36.413Z,1.30
2018-09-02T16:14:04.632Z,1.87
2018-09-02T16:16:32.803Z,2.13
2018-09-02T16:19:01.686Z,2.27
2018-09-02T16:21:30.015Z,1.67
2018-09-02T16:23:58.209Z,1.10
2018-09-02T16:26:26.399Z,1.97
2018-09-02T16:28:54.565Z,1.37
2018-09-02T16:31:22.799Z,2.20
2018-09-02T16:33:51.016Z,1.27
2018-09-02T16:36:19.179Z,1.43
2018-09-02T16:38:47.367Z,1.20
2018-09-02T16:41:15.637Z,1.20
2018-09-02T16:43:43.863Z,1.57
2018-09-02T16:46:12.064Z,1.17
2018-09-02T16:48:40.395Z,1.13
2018-09-02T16:51:08.561Z,1.20
2018-09-02T16:53:36.799Z,1.40
2018-09-02T16:56:05.316Z,1.40
2018-09-02T16:58:33.507Z,1.23
2018-09-02T17:01:01.694Z,1.53
2018-09-02T17:03:32.823Z,1.23
2018-09-02T17:06:01.031Z,1.10
2018-09-02T17:08:29.169Z,1.60
2018-09-02T17:10:57.431Z,1.07
2018-09-02T17:13:25.703Z,1.63
2018-09-02T17:15:54.320Z,2.10
2018-09-02T17:18:22.540Z,1.20
2018-09-02T17:20:51.033Z,1.40
2018-09-02T17:23:19.275Z,1.27
2018-09-02T17:25:47.573Z,1.93
2018-09-02T17:28:15.704Z,1.57
2018-09-02T17:30:43.876Z,1.47
2018-09-02T17:33:13.240Z,1.67
2018-09-02T17:35:41.542Z,1.57
2018-09-02T17:38:09.725Z,1.77
2018-09-02T17:40:37.912Z,2.13
2018-09-02T17:43:06.168Z,1.87
2018-09-02T17:45:34.363Z,1.63
2018-09-02T17:48:02.619Z,1.37
2018-09-02T17:50:30.777Z,1.87
2018-09-02T17:52:58.995Z,1.40
2018-09-02T17:55:27.248Z,1.60
2018-09-02T17:57:55.504Z,1.60
2018-09-02T18:00:26.868Z,1.27
2018-09-02T18:02:55.060Z,1.80
2018-09-02T18:05:23.349Z,1.53
2018-09-02T18:07:51.522Z,1.43
2018-09-02T18:10:19.711Z,1.10
2018-09-02T18:12:47.855Z,1.10
2018-09-02T18:15:16.069Z,1.90
2018-09-02T18:17:44.233Z,0.97
2018-09-02T18:20:12.417Z,1.87
2018-09-02T18:22:40.612Z,2.23
2018-09-02T18:25:09.088Z,1.60
2018-09-02T18:27:39.483Z,1.13
2018-09-02T18:30:08.079Z,1.25
2018-09-02T18:32:36.259Z,3.60
2018-09-02T18:35:04.459Z,1.17
2018-09-02T18:37:32.653Z,1.47
2018-09-02T18:40:00.821Z,1.47
2018-09-02T18:42:29.011Z,1.10
2018-09-02T18:44:57.151Z,1.10
2018-09-02T18:54:24.772Z,1.40
2018-09-02T18:56:52.859Z,1.10
2018-09-02T18:59:22.254Z,1.10
2018-09-02T19:01:50.465Z,2.77
2018-09-02T19:04:18.711Z,1.17
2018-09-02T19:06:46.867Z,3.00
2018-09-02T19:09:15.004Z,1.60
2018-09-02T19:11:43.227Z,1.30
2018-09-02T19:14:11.399Z,1.40
2018-09-02T19:16:39.569Z,1.80
2018-09-02T19:19:07.762Z,1.27
2018-09-02T19:21:35.929Z,1.20
2018-09-02T19:24:04.180Z,1.77
2018-09-02T19:26:32.343Z,1.90
2018-09-02T19:29:00.572Z,1.40
2018-09-02T19:31:28.813Z,2.40
2018-09-02T19:33:57.665Z,0.80
2018-09-02T19:36:25.582Z,1.00
2018-09-02T19:38:53.816Z,1.67
2018-09-02T19:41:21.971Z,1.87
2018-09-02T19:43:50.209Z,1.60
2018-09-02T19:46:18.391Z,1.10
2018-09-02T19:48:46.575Z,1.50
2018-09-02T19:51:14.780Z,1.10
2018-09-02T19:53:42.983Z,1.73
2018-09-02T19:56:11.316Z,1.87
2018-09-02T19:58:39.509Z,1.40
2018-09-02T20:01:07.731Z,1.60
2018-09-02T20:03:35.889Z,1.30
2018-09-02T20:06:04.085Z,1.97
2018-09-02T20:08:32.290Z,1.47
2018-09-02T20:11:00.439Z,1.43
2018-09-02T20:13:28.610Z,1.77
2018-09-02T20:15:56.794Z,2.53
2018-09-02T20:18:25.006Z,1.23
2018-09-02T20:20:53.226Z,1.43
2018-09-02T20:23:21.417Z,2.70
2018-09-02T20:25:49.620Z,2.57
2018-09-02T20:28:17.896Z,1.90
2018-09-02T20:30:46.088Z,1.37
2018-09-02T20:33:14.247Z,2.73
2018-09-02T20:35:42.404Z,1.30
2018-09-02T20:38:10.592Z,1.37
2018-09-02T20:40:38.764Z,1.80
2018-09-02T20:43:06.941Z,1.87
2018-09-02T20:45:35.156Z,1.40
2018-09-02T20:48:03.362Z,1.47
2018-09-02T20:50:31.556Z,1.83
2018-09-02T20:52:59.742Z,1.50
2018-09-02T20:55:27.891Z,1.20
2018-09-02T20:57:56.078Z,1.53
2018-09-02T21:00:24.246Z,1.30
2018-09-02T21:02:52.528Z,1.60
2018-09-02T21:05:20.649Z,4.10
2018-09-02T21:07:48.873Z,1.40
2018-09-02T21:10:17.073Z,1.30
2018-09-02T21:12:45.284Z,2.53
2018-09-02T21:15:13.488Z,5.07
2018-09-02T21:17:41.660Z,1.50
2018-09-02T21:20:09.887Z,1.50
2018-09-02T21:22:38.120Z,1.70
2018-09-02T21:25:06.287Z,1.67
2018-09-02T21:27:34.459Z,1.60
2018-09-02T21:30:02.697Z,1.30
2018-09-02T21:32:30.885Z,2.27
2018-09-02T21:34:59.153Z,2.10
2018-09-02T21:37:27.345Z,1.27
2018-09-02T21:39:55.597Z,1.80
2018-09-02T21:42:23.792Z,2.37
2018-09-02T21:44:52.007Z,1.67
2018-09-02T21:47:20.172Z,3.20
2018-09-02T21:49:48.501Z,2.00
2018-09-02T21:52:16.676Z,1.53
2018-09-02T21:54:44.893Z,1.80
2018-09-02T21:57:13.072Z,1.50
2018-09-02T21:59:41.392Z,1.33
2018-09-02T22:02:09.602Z,1.30
2018-09-02T22:04:37.764Z,1.53
2018-09-02T22:07:06.015Z,3.70
2018-09-02T22:09:34.192Z,1.10
2018-09-02T22:12:02.348Z,1.27
2018-09-02T22:14:30.525Z,1.50
2018-09-02T22:16:58.747Z,1.20
2018-09-02T22:19:26.897Z,1.60
2018-09-02T22:21:55.095Z,2.20
2018-09-02T22:24:23.285Z,2.43
2018-09-02T22:26:51.731Z,2.03
2018-09-02T22:29:21.450Z,2.07
2018-09-02T22:31:49.716Z,1.70
2018-09-02T22:34:17.953Z,1.87
2018-09-02T22:36:46.137Z,1.83
2018-09-02T22:39:14.292Z,1.63
2018-09-02T22:41:42.560Z,1.93
2018-09-02T22:44:10.645Z,1.80
2018-09-02T22:46:38.778Z,1.90
2018-09-02T22:49:06.977Z,1.63
2018-09-02T22:51:35.208Z,1.50
2018-09-02T22:54:03.400Z,1.50
2018-09-02T22:56:31.575Z,2.87
2018-09-02T22:58:59.768Z,2.07
2018-09-02T23:01:27.968Z,1.70
2018-09-02T23:03:56.146Z,2.20
2018-09-02T23:06:24.320Z,2.23
2018-09-02T23:08:52.559Z,2.27
2018-09-02T23:11:20.749Z,1.67
2018-09-02T23:13:48.897Z,2.03
2018-09-02T23:16:17.115Z,1.60
2018-09-02T23:18:45.368Z,1.70
2018-09-02T23:21:13.570Z,2.50
2018-09-02T23:23:41.803Z,1.67
2018-09-02T23:26:10.017Z,2.17
2018-09-02T23:28:38.207Z,3.80
2018-09-02T23:31:06.435Z,1.50
2018-09-02T23:33:34.613Z,1.73
2018-09-02T23:36:02.824Z,1.77
2018-09-02T23:38:30.999Z,1.70
2018-09-02T23:40:59.228Z,1.83
2018-09-02T23:43:27.380Z,2.37
2018-09-02T23:45:55.584Z,2.40
2018-09-02T23:48:23.754Z,2.37
2018-09-02T23:50:51.989Z,2.00
2018-09-02T23:53:20.150Z,2.57
2018-09-02T23:55:48.331Z,2.53
2018-09-02T23:58:16.512Z,1.30
